Hovedside
METAR-TAF:

METAR-TAF

Lufthavner :

Umeå, Sverige

Umeå lufthavn

breddegrad: 63-48N, lengdegrad: 020-17E, høyde over havet: 7 m

Gjeldene værobservasjon

Denne rapporten ble laget for 30 minutter siden, klokken 21:20 UTC
Vind 5 kt fra Sør-sørøst
Temperatur 15°C
Luftfuktighet 94%
Trykk 1010 hPa
Sikt 10 km eller mer
Spredte skyer i en høyde av 4900 ft
Brutte skyer i en høyde av 8800 ft
Brutte skyer i en høyde av 9800 ft

METAR: ESNU 182120Z 16005KT 9999 SCT049 BKN088 BKN098 15/14 Q1010

Tid: 23:50 (21:50 UTC)

Varsel

Denne rapporten ble laget for 1 time og 20 minutter siden, klokken 20:30 UTC
Varsel gyldig fra 18. klokken 21 UTC til 19. klokken 06 UTC
Vind 5 kt fra Sør-sørøst
Sikt 10 km eller mer
Spredte skyer i en høyde av 800 ft
Brutte skyer i en høyde av 5000 ft
Midlertidig
fra 18. klokken 21 UTC til 19. klokken 05 UTC
Sikt: 4000 m
Brutte skyer i en høyde av 700 ft
lett regn, dis

TAF: ESNU 182030Z 1821/1906 15005KT 9999 SCT008 BKN050 TEMPO 1821/1905 4000 -RA BR BKN007

Værobservasjoner og værvarsel for over 4000 flyplasser (METAR- og TAF-rapporter).

Tilgjengelige stasjoner er representert av de røde og gule prikkene på kartet.

Hold musepekeren over prikken for å se navnet på stasjonen.

Klikk så for å se værobservasjoner og -varsler.

For å forandre kartet kan du klikke på den grønne knappen med svart kryss for å zoome inn, på den grønne knappen med strek for å zoome ut, eller på de grønne pilene for å se tilstøtende kart.


METAR-TAF: